createdAt,value
2023-05-16T00:00:10.878Z,24.05
2023-05-16T00:02:40.732Z,24.05
2023-05-16T00:05:15.161Z,24.05
2023-05-16T00:07:46.338Z,24.05
2023-05-16T00:10:15.018Z,24.04
2023-05-16T00:13:26.720Z,24.03
2023-05-16T00:15:55.495Z,24.04
2023-05-16T00:18:26.175Z,24.03
2023-05-16T00:20:55.532Z,24.03
2023-05-16T00:23:25.653Z,24.04
2023-05-16T00:25:54.054Z,24.04
2023-05-16T00:28:22.433Z,24.03
2023-05-16T00:30:50.887Z,24.03
2023-05-16T00:33:19.380Z,24.03
2023-05-16T00:35:47.885Z,24.03
2023-05-16T00:38:16.332Z,24.03
2023-05-16T00:40:46.717Z,24.03
2023-05-16T00:43:15.203Z,24.03
2023-05-16T00:45:44.137Z,24.02
2023-05-16T00:48:13.482Z,24.02
2023-05-16T00:50:42.169Z,24.01
2023-05-16T00:53:10.551Z,24.02
2023-05-16T00:55:39.332Z,24.02
2023-05-16T00:58:09.088Z,24.01
2023-05-16T01:00:37.673Z,24.02
2023-05-16T01:03:06.777Z,24.01
2023-05-16T01:05:35.346Z,24.01
2023-05-16T01:08:03.838Z,24.01
2023-05-16T01:10:37.368Z,24.01
2023-05-16T01:13:13.472Z,24.00
2023-05-16T01:15:46.995Z,24.00
2023-05-16T01:18:21.504Z,24.00
2023-05-16T01:20:55.745Z,24.00
2023-05-16T01:23:38.535Z,24.00
2023-05-16T01:26:19.752Z,23.99
2023-05-16T01:28:48.428Z,24.00
2023-05-16T01:31:17.713Z,23.99
2023-05-16T01:33:46.284Z,23.99
2023-05-16T01:36:21.555Z,24.00
2023-05-16T01:39:04.678Z,23.99
2023-05-16T01:41:42.331Z,23.99
2023-05-16T01:44:19.993Z,23.99
2023-05-16T01:46:49.485Z,23.99
2023-05-16T01:49:21.526Z,23.98
2023-05-16T01:51:52.931Z,23.98
2023-05-16T01:54:21.689Z,23.98
2023-05-16T01:56:53.858Z,23.98
2023-05-16T01:59:23.185Z,23.99
2023-05-16T02:01:52.068Z,23.97
2023-05-16T02:04:20.840Z,23.97
2023-05-16T02:06:49.441Z,23.97
2023-05-16T02:09:17.981Z,23.97
2023-05-16T02:11:47.223Z,23.97
2023-05-16T02:14:16.932Z,23.97
2023-05-16T02:16:45.520Z,23.97
2023-05-16T02:19:14.176Z,23.97
2023-05-16T02:21:42.646Z,23.96
2023-05-16T02:24:11.295Z,23.96
2023-05-16T02:26:39.645Z,23.96
2023-05-16T02:29:08.234Z,23.95
2023-05-16T02:31:38.596Z,23.97
2023-05-16T02:34:07.453Z,23.95
2023-05-16T02:36:36.195Z,23.95
2023-05-16T02:39:05.139Z,23.96
2023-05-16T02:41:33.498Z,23.96
2023-05-16T02:44:02.057Z,23.96
2023-05-16T02:46:31.653Z,23.95
2023-05-16T02:49:01.819Z,23.95
2023-05-16T02:51:30.461Z,23.95
2023-05-16T02:54:00.043Z,23.95
2023-05-16T02:56:28.882Z,23.94
2023-05-16T02:58:57.316Z,23.94
2023-05-16T03:01:25.883Z,23.95
2023-05-16T03:03:54.357Z,23.94
2023-05-16T03:06:24.160Z,23.94
2023-05-16T03:08:52.698Z,23.94
2023-05-16T03:11:22.981Z,23.94
2023-05-16T03:13:51.627Z,23.93
2023-05-16T03:16:20.027Z,23.94
2023-05-16T03:18:48.515Z,23.94
2023-05-16T03:21:17.052Z,23.94
2023-05-16T03:23:46.827Z,23.94
2023-05-16T03:26:15.367Z,23.93
2023-05-16T03:28:43.961Z,23.93
2023-05-16T03:31:12.490Z,23.93
2023-05-16T03:33:42.400Z,23.93
2023-05-16T03:36:13.605Z,23.94
2023-05-16T03:38:41.930Z,23.94
2023-05-16T03:41:11.699Z,23.93
2023-05-16T03:43:40.368Z,23.93
2023-05-16T03:46:08.865Z,23.93
2023-05-16T03:48:37.439Z,23.93
2023-05-16T03:51:06.245Z,23.93
2023-05-16T03:53:34.630Z,23.93
2023-05-16T03:56:04.245Z,23.94
2023-05-16T03:58:34.080Z,23.94
2023-05-16T04:01:02.820Z,23.94
2023-05-16T04:03:31.521Z,23.94
2023-05-16T04:05:59.927Z,23.95
2023-05-16T04:08:28.774Z,23.95
2023-05-16T04:10:57.184Z,23.95
2023-05-16T04:13:25.800Z,23.95
2023-05-16T04:15:55.605Z,23.94
2023-05-16T04:18:24.653Z,23.96
2023-05-16T04:20:53.029Z,23.96
2023-05-16T04:23:21.432Z,23.97
2023-05-16T04:25:50.888Z,23.96
2023-05-16T04:28:19.389Z,23.96
2023-05-16T04:30:48.890Z,23.98
2023-05-16T04:33:18.878Z,23.97
2023-05-16T04:35:47.379Z,23.99
2023-05-16T04:38:15.939Z,23.98
2023-05-16T04:40:44.338Z,23.99
2023-05-16T04:43:13.662Z,23.99
2023-05-16T04:45:45.520Z,23.98
2023-05-16T04:48:14.125Z,23.99
2023-05-16T04:50:44.072Z,24.00
2023-05-16T04:53:12.452Z,24.00
2023-05-16T04:55:41.135Z,24.01
2023-05-16T04:58:09.524Z,24.00
2023-05-16T05:00:38.246Z,24.01
2023-05-16T05:03:06.816Z,24.01
2023-05-16T05:05:35.708Z,24.01
2023-05-16T05:08:06.633Z,24.03
2023-05-16T05:10:35.200Z,24.01
2023-05-16T05:13:03.680Z,24.02
2023-05-16T05:15:32.415Z,24.04
2023-05-16T05:18:00.879Z,24.05
2023-05-16T05:20:29.429Z,24.08
2023-05-16T05:22:58.013Z,24.08
2023-05-16T05:25:28.286Z,24.10
2023-05-16T05:27:57.032Z,24.12
2023-05-16T05:30:25.932Z,24.10
2023-05-16T05:32:55.176Z,24.10
2023-05-16T05:35:23.542Z,24.11
2023-05-16T05:37:51.955Z,24.11
2023-05-16T05:40:20.690Z,24.03
2023-05-16T05:42:50.513Z,24.00
2023-05-16T05:45:19.244Z,24.00
2023-05-16T05:47:47.601Z,23.33
2023-05-16T05:50:16.851Z,23.66
2023-05-16T05:52:45.422Z,23.88
2023-05-16T05:55:13.822Z,23.97
2023-05-16T05:57:42.435Z,24.00
2023-05-16T06:00:14.129Z,24.01
2023-05-16T06:02:42.928Z,24.03
2023-05-16T06:05:11.803Z,24.05
2023-05-16T06:07:40.432Z,24.03
2023-05-16T06:10:10.511Z,24.03
2023-05-16T06:12:39.152Z,24.02
2023-05-16T06:15:11.457Z,24.02
2023-05-16T06:17:42.263Z,24.01
2023-05-16T06:20:11.950Z,24.04
2023-05-16T06:22:40.336Z,24.03
2023-05-16T06:25:10.104Z,24.06
2023-05-16T06:27:38.767Z,24.06
2023-05-16T06:30:09.985Z,24.10
2023-05-16T06:32:38.895Z,24.08
2023-05-16T06:35:12.166Z,24.08
2023-05-16T06:37:42.960Z,24.07
2023-05-16T06:40:13.144Z,24.06
2023-05-16T06:42:41.786Z,24.06
2023-05-16T06:45:11.827Z,24.05
2023-05-16T06:47:40.341Z,24.06
2023-05-16T06:50:11.793Z,24.04
2023-05-16T06:52:40.259Z,24.06
2023-05-16T06:55:10.125Z,23.92
2023-05-16T06:57:38.620Z,23.89
2023-05-16T07:00:09.960Z,23.86
2023-05-16T07:02:39.065Z,23.86
2023-05-16T07:05:10.655Z,23.87
2023-05-16T07:07:39.180Z,23.87
2023-05-16T07:10:08.755Z,23.88
2023-05-16T07:12:38.575Z,23.97
2023-05-16T07:15:08.942Z,23.95
2023-05-16T07:17:37.772Z,23.87
2023-05-16T07:20:08.307Z,23.84
2023-05-16T07:22:38.081Z,23.80
2023-05-16T07:25:12.704Z,23.80
2023-05-16T07:27:44.751Z,23.79
2023-05-16T07:30:15.142Z,23.78
2023-05-16T07:32:43.768Z,23.80
2023-05-16T07:35:15.318Z,23.80
2023-05-16T07:37:45.082Z,23.76
2023-05-16T07:40:14.962Z,23.85
2023-05-16T07:42:43.393Z,23.88
2023-05-16T07:45:11.984Z,23.90
2023-05-16T07:47:40.935Z,23.97
2023-05-16T07:50:10.831Z,23.91
2023-05-16T07:52:39.410Z,23.89
2023-05-16T07:55:11.140Z,23.91
2023-05-16T07:57:39.817Z,23.98
2023-05-16T08:00:10.213Z,24.01
2023-05-16T08:02:38.801Z,24.08
2023-05-16T08:05:09.618Z,24.00
2023-05-16T08:07:38.129Z,23.97
2023-05-16T08:10:12.557Z,24.03
2023-05-16T08:12:41.851Z,24.09
2023-05-16T08:15:11.565Z,24.05
2023-05-16T08:17:40.085Z,24.02
2023-05-16T08:20:09.832Z,23.97
2023-05-16T08:22:38.336Z,23.92
2023-05-16T08:25:09.524Z,23.92
2023-05-16T08:27:38.048Z,23.90
2023-05-16T08:30:08.377Z,23.91
2023-05-16T08:32:37.420Z,23.92
2023-05-16T08:35:07.107Z,23.90
2023-05-16T08:37:36.204Z,23.90
2023-05-16T08:40:10.219Z,23.88
2023-05-16T08:42:40.245Z,23.97
2023-05-16T08:45:09.969Z,23.93
2023-05-16T08:47:38.695Z,23.87
2023-05-16T08:50:09.860Z,23.96
2023-05-16T08:52:40.560Z,23.95
2023-05-16T08:55:11.644Z,24.03
2023-05-16T08:57:42.122Z,24.08
2023-05-16T09:00:13.140Z,24.02
2023-05-16T09:02:41.969Z,23.95
2023-05-16T09:05:12.974Z,24.01
2023-05-16T09:07:41.760Z,24.02
2023-05-16T09:10:11.530Z,23.99
2023-05-16T09:12:42.364Z,24.07
2023-05-16T09:15:11.731Z,24.10
2023-05-16T09:17:44.372Z,24.11
2023-05-16T09:20:14.767Z,24.10
2023-05-16T09:22:52.025Z,24.08
2023-05-16T09:25:29.479Z,24.06
2023-05-16T09:28:01.581Z,24.05
2023-05-16T09:30:31.896Z,24.05
2023-05-16T09:33:00.610Z,24.05
2023-05-16T09:38:00.525Z,24.03
2023-05-16T09:40:28.926Z,24.10
2023-05-16T09:43:06.042Z,24.06
2023-05-16T09:45:34.795Z,24.00
2023-05-16T09:48:05.912Z,24.01
2023-05-16T09:50:35.399Z,24.05
2023-05-16T09:53:04.180Z,24.10
2023-05-16T09:55:33.117Z,24.06
2023-05-16T09:58:01.755Z,24.08
2023-05-16T10:00:33.342Z,24.10
2023-05-16T10:03:05.776Z,24.12
2023-05-16T10:05:34.927Z,24.06
2023-05-16T10:08:04.838Z,24.04
2023-05-16T10:10:35.862Z,24.08
2023-05-16T10:13:04.692Z,24.09
2023-05-16T10:15:36.763Z,23.99
2023-05-16T10:18:08.394Z,23.96
2023-05-16T10:20:36.893Z,23.98
2023-05-16T10:23:05.320Z,23.99
2023-05-16T10:25:36.183Z,24.04
2023-05-16T10:28:04.987Z,24.03
2023-05-16T10:30:35.810Z,24.05
2023-05-16T10:33:04.510Z,24.05
2023-05-16T10:35:33.262Z,24.06
2023-05-16T10:38:01.876Z,24.04
2023-05-16T10:40:30.310Z,24.08
2023-05-16T10:42:59.135Z,24.10
2023-05-16T10:45:28.048Z,24.06
2023-05-16T10:47:59.840Z,24.06
2023-05-16T10:50:36.033Z,24.08
2023-05-16T10:53:19.850Z,24.07
2023-05-16T10:55:52.592Z,24.08
2023-05-16T10:58:25.722Z,24.09
2023-05-16T11:01:20.688Z,24.09
2023-05-16T11:04:11.299Z,24.04
2023-05-16T11:06:48.328Z,24.07
2023-05-16T11:09:23.574Z,24.09
2023-05-16T11:12:00.777Z,24.19
2023-05-16T11:14:32.429Z,24.20
2023-05-16T11:17:10.109Z,24.20
2023-05-16T11:19:44.866Z,24.16
2023-05-16T11:22:31.779Z,24.14
2023-05-16T11:25:02.971Z,24.15
2023-05-16T11:27:32.267Z,24.13
2023-05-16T11:30:04.625Z,24.15
2023-05-16T11:32:35.266Z,24.15
2023-05-16T11:35:05.944Z,24.15
2023-05-16T11:37:34.395Z,24.11
2023-05-16T11:40:03.654Z,24.14
2023-05-16T11:42:35.832Z,24.10
2023-05-16T11:45:08.820Z,24.12
2023-05-16T11:47:39.155Z,24.14
2023-05-16T11:50:13.081Z,24.11
2023-05-16T11:52:41.687Z,24.09
2023-05-16T11:55:11.936Z,24.10
2023-05-16T11:57:42.147Z,24.16
2023-05-16T12:00:17.903Z,24.18
2023-05-16T12:02:47.996Z,24.11
2023-05-16T12:05:18.976Z,24.11
2023-05-16T12:07:47.550Z,24.17
2023-05-16T12:10:16.975Z,24.24
2023-05-16T12:12:46.764Z,24.16
2023-05-16T12:15:17.908Z,24.12
2023-05-16T12:17:46.668Z,24.08
2023-05-16T12:20:16.821Z,24.08
2023-05-16T12:22:47.174Z,24.17
2023-05-16T12:25:34.016Z,24.07
2023-05-16T12:28:03.756Z,24.08
2023-05-16T12:30:33.437Z,24.06
2023-05-16T12:33:06.992Z,24.02
2023-05-16T12:35:37.799Z,24.04
2023-05-16T12:38:07.832Z,24.06
2023-05-16T12:40:38.294Z,24.02
2023-05-16T12:43:08.841Z,24.04
2023-05-16T12:45:37.241Z,24.07
2023-05-16T12:48:14.217Z,24.05
2023-05-16T12:50:42.884Z,24.05
2023-05-16T12:53:14.631Z,24.04
2023-05-16T12:55:43.288Z,24.03
2023-05-16T12:58:12.189Z,24.01
2023-05-16T13:00:40.733Z,24.03
2023-05-16T13:03:09.646Z,23.96
2023-05-16T13:05:38.178Z,24.03
2023-05-16T13:08:07.519Z,24.06
2023-05-16T13:10:37.434Z,24.09
2023-05-16T13:13:05.854Z,24.00
2023-05-16T13:15:34.449Z,24.02
2023-05-16T13:18:03.206Z,23.96
2023-05-16T13:20:31.652Z,24.05
2023-05-16T13:23:00.240Z,23.99
2023-05-16T13:25:28.901Z,23.98
2023-05-16T13:27:58.922Z,24.16
2023-05-16T13:30:29.027Z,24.08
2023-05-16T13:32:59.296Z,24.02
2023-05-16T13:35:28.285Z,24.05
2023-05-16T13:37:56.927Z,24.01
2023-05-16T13:40:25.526Z,24.06
2023-05-16T13:42:54.022Z,24.15
2023-05-16T13:45:23.982Z,24.14
2023-05-16T13:47:52.677Z,24.07
2023-05-16T13:50:21.642Z,24.02
2023-05-16T13:52:50.080Z,24.01
2023-05-16T13:55:19.870Z,24.00
2023-05-16T13:57:48.891Z,24.02
2023-05-16T14:00:44.397Z,24.00
2023-05-16T14:03:09.479Z,24.02
2023-05-16T14:05:38.183Z,24.02
2023-05-16T14:08:07.966Z,23.99
2023-05-16T14:10:36.703Z,23.96
2023-05-16T14:13:05.235Z,23.94
2023-05-16T14:15:34.015Z,23.93
2023-05-16T14:18:05.147Z,23.93
2023-05-16T14:20:35.094Z,23.96
2023-05-16T14:23:03.963Z,23.98
2023-05-16T14:25:32.390Z,23.99
2023-05-16T14:28:00.860Z,24.00
2023-05-16T14:30:29.608Z,24.01
2023-05-16T14:33:00.382Z,24.00
2023-05-16T14:35:29.708Z,24.00
2023-05-16T14:37:59.791Z,23.98
2023-05-16T14:40:28.235Z,23.95
2023-05-16T14:42:56.715Z,23.95
2023-05-16T14:45:25.561Z,24.00
2023-05-16T14:47:54.504Z,23.98
2023-05-16T14:50:23.485Z,23.97
2023-05-16T14:52:53.180Z,23.95
2023-05-16T14:55:24.057Z,24.00
2023-05-16T14:57:59.017Z,24.05
2023-05-16T15:00:28.910Z,24.08
2023-05-16T15:02:57.725Z,24.06
2023-05-16T15:05:26.484Z,24.04
2023-05-16T15:07:55.223Z,24.05
2023-05-16T15:10:25.335Z,24.06
2023-05-16T15:12:54.655Z,24.07
2023-05-16T15:15:23.107Z,24.06
2023-05-16T15:17:51.671Z,24.09
2023-05-16T15:20:22.523Z,24.09
2023-05-16T15:22:51.375Z,24.07
2023-05-16T15:25:21.002Z,24.08
2023-05-16T15:27:51.253Z,24.09
2023-05-16T15:30:19.799Z,24.07
2023-05-16T15:32:48.930Z,24.05
2023-05-16T15:35:17.508Z,24.07
2023-05-16T15:37:46.136Z,24.09
2023-05-16T15:40:15.537Z,24.08
2023-05-16T15:42:44.984Z,24.05
2023-05-16T15:45:15.087Z,24.05
2023-05-16T15:47:43.619Z,24.08
2023-05-16T15:50:13.692Z,24.06
2023-05-16T15:52:42.271Z,24.08
2023-05-16T15:55:12.691Z,24.07
2023-05-16T15:57:42.251Z,24.08
2023-05-16T16:00:12.420Z,24.10
2023-05-16T16:02:45.029Z,24.10
2023-05-16T16:05:13.634Z,24.11
2023-05-16T16:07:42.091Z,24.13
2023-05-16T16:10:12.739Z,24.09
2023-05-16T16:12:41.339Z,24.07
2023-05-16T16:15:12.266Z,24.06
2023-05-16T16:17:42.276Z,24.04
2023-05-16T16:20:12.556Z,24.05
2023-05-16T16:22:41.160Z,24.06
2023-05-16T16:25:10.304Z,24.10
2023-05-16T16:27:38.793Z,24.09
2023-05-16T16:30:09.662Z,24.10
2023-05-16T16:32:38.450Z,24.07
2023-05-16T16:35:09.693Z,24.07
2023-05-16T16:37:38.219Z,24.10
2023-05-16T16:40:10.391Z,24.08
2023-05-16T16:42:40.549Z,24.08
2023-05-16T16:45:10.765Z,24.08
2023-05-16T16:47:40.488Z,24.09
2023-05-16T16:50:13.010Z,24.09
2023-05-16T16:52:41.554Z,24.08
2023-05-16T16:55:10.957Z,24.11
2023-05-16T16:57:39.469Z,24.11
2023-05-16T17:00:11.621Z,24.13
2023-05-16T17:02:40.368Z,24.12
2023-05-16T17:05:11.861Z,24.12
2023-05-16T17:07:40.593Z,24.11
2023-05-16T17:10:10.611Z,24.14
2023-05-16T17:12:46.230Z,24.14
2023-05-16T17:15:14.657Z,24.11
2023-05-16T17:17:43.664Z,24.12
2023-05-16T17:20:14.278Z,24.14
2023-05-16T17:22:43.059Z,24.13
2023-05-16T17:25:12.308Z,24.12
2023-05-16T17:27:41.413Z,24.08
2023-05-16T17:30:12.003Z,24.11
2023-05-16T17:32:40.825Z,24.08
2023-05-16T17:35:09.901Z,24.09
2023-05-16T17:37:39.937Z,24.10
2023-05-16T17:40:12.024Z,24.14
2023-05-16T17:42:40.624Z,24.02
2023-05-16T17:45:12.190Z,24.03
2023-05-16T17:47:41.442Z,24.03
2023-05-16T17:50:12.045Z,23.99
2023-05-16T17:52:41.992Z,23.98
2023-05-16T17:55:11.411Z,23.92
2023-05-16T17:57:40.038Z,23.95
2023-05-16T18:00:10.530Z,23.99
2023-05-16T18:02:39.471Z,24.03
2023-05-16T18:05:10.568Z,23.91
2023-05-16T18:07:39.045Z,23.95
2023-05-16T18:10:10.622Z,23.97
2023-05-16T18:12:39.258Z,23.99
2023-05-16T18:15:10.720Z,24.00
2023-05-16T18:17:39.227Z,24.00
2023-05-16T18:20:11.096Z,24.00
2023-05-16T18:22:39.744Z,24.01
2023-05-16T18:25:11.684Z,24.03
2023-05-16T18:27:40.158Z,24.03
2023-05-16T18:30:10.922Z,24.03
2023-05-16T18:32:39.634Z,24.05
2023-05-16T18:35:09.431Z,24.06
2023-05-16T18:37:38.676Z,24.03
2023-05-16T18:40:10.855Z,24.07
2023-05-16T18:42:39.616Z,24.13
2023-05-16T18:45:09.801Z,24.12
2023-05-16T18:47:38.318Z,24.08
2023-05-16T18:50:08.496Z,24.07
2023-05-16T18:52:37.050Z,24.07
2023-05-16T18:55:06.327Z,24.04
2023-05-16T18:57:36.183Z,24.06
2023-05-16T19:00:06.105Z,24.08
2023-05-16T19:05:10.671Z,24.09
2023-05-16T19:07:39.492Z,24.02
2023-05-16T19:10:09.776Z,24.08
2023-05-16T19:12:39.701Z,24.09
2023-05-16T19:15:10.624Z,24.10
2023-05-16T19:17:41.880Z,24.10
2023-05-16T19:20:11.230Z,24.10
2023-05-16T19:22:39.743Z,24.10
2023-05-16T19:25:09.493Z,24.09
2023-05-16T19:27:39.340Z,24.09
2023-05-16T19:30:10.030Z,24.10
2023-05-16T19:32:38.804Z,24.09
2023-05-16T19:35:08.092Z,24.10
2023-05-16T19:37:36.612Z,24.11
2023-05-16T19:40:05.477Z,24.11
2023-05-16T19:42:34.242Z,24.11
2023-05-16T19:45:04.214Z,24.12
2023-05-16T19:47:32.763Z,24.12
2023-05-16T19:50:02.536Z,24.12
2023-05-16T19:52:31.167Z,24.12
2023-05-16T19:54:59.886Z,24.12
2023-05-16T19:57:28.432Z,24.12
2023-05-16T19:59:56.903Z,24.13
2023-05-16T20:02:27.072Z,24.13
2023-05-16T20:04:55.968Z,24.12
2023-05-16T20:07:24.479Z,24.13
2023-05-16T20:09:52.919Z,24.14
2023-05-16T20:12:22.216Z,24.16
2023-05-16T20:14:51.802Z,24.15
2023-05-16T20:17:20.577Z,24.15
2023-05-16T20:19:50.653Z,24.14
2023-05-16T20:22:22.427Z,24.14
2023-05-16T20:24:51.073Z,24.14
2023-05-16T20:27:21.719Z,24.14
2023-05-16T20:29:52.485Z,24.14
2023-05-16T20:32:20.960Z,24.13
2023-05-16T20:34:50.838Z,24.15
2023-05-16T20:37:19.429Z,24.15
2023-05-16T20:39:47.844Z,24.14
2023-05-16T20:42:16.364Z,24.15
2023-05-16T20:44:45.061Z,24.15
2023-05-16T20:47:13.495Z,24.15
2023-05-16T20:49:42.044Z,24.14
2023-05-16T20:52:12.126Z,24.15
2023-05-16T20:54:42.010Z,24.15
2023-05-16T20:57:10.504Z,24.15
2023-05-16T20:59:38.994Z,24.16
2023-05-16T21:02:12.331Z,24.14
2023-05-16T21:04:40.944Z,24.14
2023-05-16T21:07:11.629Z,24.15
2023-05-16T21:09:41.504Z,24.15
2023-05-16T21:12:10.207Z,24.14
2023-05-16T21:14:38.838Z,24.14
2023-05-16T21:17:07.396Z,24.14
2023-05-16T21:19:37.019Z,24.14
2023-05-16T21:22:05.929Z,24.15
2023-05-16T21:24:35.658Z,24.14
2023-05-16T21:27:06.323Z,24.15
2023-05-16T21:29:35.126Z,24.15
2023-05-16T21:32:03.903Z,24.15
2023-05-16T21:34:32.401Z,24.15
2023-05-16T21:37:00.900Z,24.14
2023-05-16T21:39:29.574Z,24.14
2023-05-16T21:41:58.103Z,24.15
2023-05-16T21:44:28.032Z,24.14
2023-05-16T21:46:56.570Z,24.13
2023-05-16T21:49:25.279Z,24.15
2023-05-16T21:51:53.838Z,24.15
2023-05-16T21:54:22.313Z,24.15
2023-05-16T21:56:50.983Z,24.16
2023-05-16T21:59:19.455Z,24.16
2023-05-16T22:01:51.673Z,24.15
2023-05-16T22:04:20.312Z,24.15
2023-05-16T22:06:48.899Z,24.14
2023-05-16T22:09:17.551Z,24.14
2023-05-16T22:11:46.044Z,24.14
2023-05-16T22:14:14.718Z,24.14
2023-05-16T22:16:43.165Z,24.15
2023-05-16T22:19:12.991Z,24.14
2023-05-16T22:21:41.648Z,24.15
2023-05-16T22:24:10.130Z,24.15
2023-05-16T22:26:38.666Z,24.14
2023-05-16T22:29:10.381Z,24.15
2023-05-16T22:31:38.959Z,24.13
2023-05-16T22:34:07.721Z,24.14
2023-05-16T22:36:37.595Z,24.14
2023-05-16T22:39:06.649Z,24.15
2023-05-16T22:41:35.074Z,24.14
2023-05-16T22:44:03.753Z,24.14
2023-05-16T22:46:32.608Z,24.13
2023-05-16T22:49:01.062Z,24.15
2023-05-16T22:51:29.591Z,24.15
2023-05-16T22:53:59.370Z,24.15
2023-05-16T22:56:27.976Z,24.15
2023-05-16T22:58:56.404Z,24.14
2023-05-16T23:01:24.973Z,24.14
2023-05-16T23:03:53.532Z,24.14
2023-05-16T23:06:21.910Z,24.14
2023-05-16T23:08:50.402Z,24.15
2023-05-16T23:11:20.365Z,24.14
2023-05-16T23:13:49.146Z,24.15
2023-05-16T23:16:17.567Z,24.13
2023-05-16T23:18:46.167Z,24.14
2023-05-16T23:21:17.030Z,24.14
2023-05-16T23:23:45.609Z,24.14
2023-05-16T23:26:14.094Z,24.15
2023-05-16T23:28:43.988Z,24.16
2023-05-16T23:31:12.437Z,24.15
2023-05-16T23:33:40.869Z,24.15
2023-05-16T23:36:09.753Z,24.15
2023-05-16T23:38:38.516Z,24.15
2023-05-16T23:41:07.018Z,24.15
2023-05-16T23:43:35.534Z,24.15
2023-05-16T23:46:05.412Z,24.17
2023-05-16T23:48:36.342Z,24.15
2023-05-16T23:51:07.566Z,24.15
2023-05-16T23:53:36.387Z,24.15
2023-05-16T23:56:05.090Z,24.16
2023-05-16T23:58:33.759Z,24.16
